Time;durP1;ratioP1;P1;durP2;ratioP2;P2;SDS_P1;SDS_P2;PMS_P1;PMS_P2;Temp;Humidity;BMP_temperature;BMP_pressure;BME280_temperature;BME280_humidity;BME280_pressure;Samples;Min_cycle;Max_cycle;Signal;HPM_P1;HPM_P2
2023/01/29 00:02:15;;;;;;;102.18;52.53;;;-1.50;91.70;;;;;;5011438;28;20388;-74
2023/01/29 00:04:40;;;;;;;98.73;48.80;;;-1.50;92.30;;;;;;5011796;28;20389;-75
2023/01/29 00:07:07;;;;;;;102.77;52.50;;;-1.50;91.40;;;;;;5011910;28;20753;-73
2023/01/29 00:09:32;;;;;;;98.60;51.43;;;-1.50;91.90;;;;;;5011579;28;20430;-74
2023/01/29 00:11:58;;;;;;;95.93;50.15;;;-1.40;91.10;;;;;;5011144;28;20396;-74
2023/01/29 00:14:26;;;;;;;94.43;49.55;;;-1.40;89.60;;;;;;5011651;28;20758;-73
2023/01/29 00:16:51;;;;;;;97.72;50.85;;;-1.40;89.20;;;;;;5010171;28;20396;-73
2023/01/29 00:19:18;;;;;;;99.38;51.33;;;-1.40;89.90;;;;;;5011448;28;20415;-74
2023/01/29 00:21:44;;;;;;;102.60;51.53;;;-1.40;89.00;;;;;;5011783;28;20412;-75
2023/01/29 00:24:09;;;;;;;96.45;50.40;;;-1.50;89.30;;;;;;5012673;28;20740;-74
2023/01/29 00:26:37;;;;;;;99.53;51.80;;;-1.50;90.20;;;;;;5012338;28;20385;-76
2023/01/29 00:29:03;;;;;;;99.97;51.08;;;-1.50;90.80;;;;;;5012589;28;20447;-74
2023/01/29 00:31:29;;;;;;;97.90;50.28;;;-1.50;90.30;;;;;;5012528;28;20888;-74
2023/01/29 00:33:55;;;;;;;92.20;49.87;;;-1.50;89.60;;;;;;5014201;28;20437;-75
2023/01/29 00:36:21;;;;;;;91.05;49.15;;;-1.50;90.40;;;;;;5021994;28;20393;-74
2023/01/29 00:38:53;;;;;;;97.97;50.70;;;-1.50;91.00;;;;;;5022999;28;20401;-75
2023/01/29 00:46:49;;;;;;;91.53;50.28;;;-1.50;90.70;;;;;;5019412;28;20746;-74
2023/01/29 00:49:15;;;;;;;90.73;49.77;;;-1.50;90.30;;;;;;5016430;28;20389;-74
2023/01/29 00:51:40;;;;;;;89.97;48.30;;;-1.60;90.90;;;;;;5015304;28;20396;-75
2023/01/29 00:54:06;;;;;;;105.45;51.58;;;-1.60;91.80;;;;;;5015189;28;20492;-75
2023/01/29 00:56:36;;;;;;;95.23;51.90;;;-1.60;92.20;;;;;;5014063;28;20415;-75
2023/01/29 00:59:03;;;;;;;90.35;50.10;;;-1.50;92.30;;;;;;5015570;28;20542;-74
2023/01/29 01:04:13;;;;;;;97.07;51.47;;;-1.60;91.80;;;;;;5015286;28;20384;-75
2023/01/29 01:06:41;;;;;;;93.20;50.97;;;-1.60;90.90;;;;;;5013512;28;20479;-75
2023/01/29 01:11:53;;;;;;;97.75;51.67;;;-1.60;91.80;;;;;;5015143;28;20439;-75
2023/01/29 01:14:19;;;;;;;97.57;50.67;;;-1.60;91.90;;;;;;5015497;28;20743;-74
2023/01/29 01:16:46;;;;;;;104.43;52.90;;;-1.60;93.60;;;;;;5016755;28;20435;-75
2023/01/29 01:19:13;;;;;;;100.45;52.60;;;-1.50;94.80;;;;;;5016509;28;20793;-75
2023/01/29 01:21:38;;;;;;;97.73;51.73;;;-1.40;94.30;;;;;;5016261;28;20561;-74
2023/01/29 01:24:04;;;;;;;99.75;52.75;;;-1.30;92.80;;;;;;5016452;28;20454;-75
2023/01/29 01:26:31;;;;;;;98.90;50.95;;;-1.30;92.30;;;;;;5015152;28;20407;-74
2023/01/29 01:28:57;;;;;;;97.35;51.00;;;-1.20;91.60;;;;;;5014551;28;20816;-74
2023/01/29 01:31:23;;;;;;;96.00;50.47;;;-1.20;91.30;;;;;;5012914;28;20388;-74
2023/01/29 01:33:50;;;;;;;96.85;51.42;;;-1.10;90.50;;;;;;5014575;28;20438;-74
2023/01/29 01:36:17;;;;;;;95.22;51.50;;;-1.10;89.70;;;;;;5014534;28;20381;-74
2023/01/29 01:38:46;;;;;;;91.55;50.47;;;-1.00;87.70;;;;;;5013280;28;20409;-74
2023/01/29 01:41:13;;;;;;;96.20;50.25;;;-1.10;86.70;;;;;;5014189;28;20437;-74
2023/01/29 01:44:00;;;;;;;95.20;51.25;;;-1.10;86.10;;;;;;5014236;28;20381;-73
2023/01/29 01:46:35;;;;;;;96.57;51.05;;;-1.20;86.50;;;;;;5014197;28;20730;-74
2023/01/29 01:49:09;;;;;;;92.00;49.40;;;-1.30;87.20;;;;;;5013988;28;20396;-74
2023/01/29 01:51:39;;;;;;;105.65;52.53;;;-1.40;87.70;;;;;;5044351;23;20498;-74
2023/01/29 01:54:19;;;;;;;95.43;50.33;;;-1.40;88.20;;;;;;5079128;28;20368;-74
2023/01/29 01:56:53;;;;;;;99.15;51.35;;;-1.40;88.30;;;;;;5078189;28;20551;-76
2023/01/29 01:59:18;;;;;;;102.28;51.30;;;-1.50;88.10;;;;;;5076169;28;20825;-74
2023/01/29 02:01:49;;;;;;;93.35;49.95;;;-1.50;88.90;;;;;;5075064;28;20423;-75
2023/01/29 02:10:21;;;;;;;94.57;50.45;;;-1.60;90.40;;;;;;5075826;28;20525;-76
2023/01/29 02:12:47;;;;;;;98.70;52.65;;;-1.60;90.10;;;;;;5071544;28;20392;-76
2023/01/29 02:15:13;;;;;;;95.97;50.50;;;-1.60;89.90;;;;;;5075373;28;20451;-75
2023/01/29 02:17:39;;;;;;;100.43;51.13;;;-1.60;90.20;;;;;;5077214;28;20728;-74
2023/01/29 02:20:13;;;;;;;94.93;50.63;;;-1.60;90.10;;;;;;5074298;28;20395;-74
2023/01/29 02:22:53;;;;;;;96.25;50.22;;;-1.60;91.20;;;;;;5074627;28;20471;-75
2023/01/29 02:25:25;;;;;;;97.07;50.25;;;-1.70;91.00;;;;;;5080190;28;20425;-74
2023/01/29 02:28:20;;;;;;;114.60;51.78;;;-1.70;91.70;;;;;;5082692;28;20384;-73
2023/01/29 02:30:58;;;;;;;96.07;51.00;;;-1.70;91.70;;;;;;5075558;28;20661;-74
2023/01/29 02:33:49;;;;;;;98.28;52.40;;;-1.80;92.50;;;;;;5075460;28;20661;-75
2023/01/29 02:36:42;;;;;;;98.15;52.60;;;-1.80;92.90;;;;;;5076760;28;20380;-75
2023/01/29 02:39:29;;;;;;;99.63;51.77;;;-1.70;92.80;;;;;;5083486;28;20392;-74
2023/01/29 02:42:16;;;;;;;96.95;50.25;;;-1.70;93.50;;;;;;5091822;28;20390;-75
2023/01/29 02:45:10;;;;;;;102.03;51.58;;;-1.60;93.90;;;;;;5080800;28;20429;-76
2023/01/29 02:47:59;;;;;;;99.05;51.47;;;-1.60;94.00;;;;;;5076118;28;20387;-76
2023/01/29 02:50:53;;;;;;;97.28;51.83;;;-1.50;92.60;;;;;;5077985;28;20390;-77
2023/01/29 02:53:31;;;;;;;91.47;50.60;;;-1.50;91.50;;;;;;5072777;28;20407;-76
2023/01/29 02:56:09;;;;;;;93.15;49.50;;;-1.50;90.80;;;;;;5073755;28;20419;-76
2023/01/29 02:58:42;;;;;;;100.30;51.17;;;-1.50;90.10;;;;;;5075433;28;20533;-76
2023/01/29 03:01:24;;;;;;;95.03;49.92;;;-1.50;89.50;;;;;;5075082;28;20391;-74
2023/01/29 03:03:54;;;;;;;96.10;51.95;;;-1.60;89.30;;;;;;5074585;28;20380;-75
2023/01/29 03:06:29;;;;;;;104.03;52.63;;;-1.60;90.10;;;;;;5074321;28;20473;-76
2023/01/29 03:09:08;;;;;;;97.35;50.92;;;-1.70;89.70;;;;;;5072978;28;20376;-74
2023/01/29 03:11:50;;;;;;;91.50;49.90;;;-1.70;90.60;;;;;;5073627;28;20383;-75
2023/01/29 03:14:23;;;;;;;93.03;49.53;;;-1.70;90.70;;;;;;5072993;28;20779;-75
2023/01/29 03:16:52;;;;;;;102.68;52.95;;;-1.80;91.40;;;;;;5073966;28;20387;-75
2023/01/29 03:19:40;;;;;;;94.38;50.90;;;-1.70;92.40;;;;;;5075384;28;20420;-75
2023/01/29 03:22:07;;;;;;;96.28;51.25;;;-1.70;91.20;;;;;;5074453;28;20383;-75
2023/01/29 03:33:09;;;;;;;104.40;52.17;;;-1.90;93.50;;;;;;5076299;28;20477;-75
2023/01/29 03:35:42;;;;;;;98.78;49.70;;;-1.90;93.60;;;;;;5079219;28;20388;-75
2023/01/29 03:38:10;;;;;;;100.38;50.80;;;-1.90;94.60;;;;;;5078400;28;20375;-75
2023/01/29 03:40:38;;;;;;;98.90;51.67;;;-1.80;95.30;;;;;;5076503;28;20440;-74
2023/01/29 03:43:09;;;;;;;99.50;51.10;;;-1.80;94.40;;;;;;5076316;28;20867;-75
2023/01/29 03:45:47;;;;;;;100.97;52.20;;;-1.80;93.90;;;;;;5075120;28;20836;-76
2023/01/29 03:48:28;;;;;;;98.65;50.95;;;-1.80;93.90;;;;;;5073332;28;20380;-73
2023/01/29 03:51:19;;;;;;;102.88;52.58;;;-1.90;94.10;;;;;;5072129;28;20395;-74
2023/01/29 03:54:34;;;;;;;101.70;51.28;;;-1.90;94.60;;;;;;5072785;28;20406;-74
2023/01/29 03:57:14;;;;;;;95.68;50.65;;;-1.90;96.10;;;;;;5066938;28;20384;-74
2023/01/29 03:59:57;;;;;;;97.88;50.53;;;-1.80;96.00;;;;;;5071860;28;20431;-75
2023/01/29 04:02:29;;;;;;;92.45;47.67;;;-1.80;95.60;;;;;;5069980;28;20407;-73
2023/01/29 04:05:05;;;;;;;102.50;49.58;;;-1.80;93.90;;;;;;5072323;28;20868;-76
2023/01/29 04:07:32;;;;;;;93.78;47.75;;;-1.80;94.40;;;;;;5070776;28;20387;-75
2023/01/29 04:10:04;;;;;;;97.80;50.20;;;-1.70;94.00;;;;;;5070565;28;20441;-75
2023/01/29 04:12:36;;;;;;;96.85;49.50;;;-1.80;92.50;;;;;;5071611;28;20383;-74
2023/01/29 04:15:08;;;;;;;93.32;48.08;;;-1.80;94.00;;;;;;5071810;28;20371;-74
2023/01/29 04:17:38;;;;;;;94.15;48.40;;;-1.80;94.40;;;;;;5072069;28;20394;-74
2023/01/29 04:20:04;;;;;;;93.40;49.47;;;-1.80;92.30;;;;;;5071552;28;20915;-74
2023/01/29 04:22:35;;;;;;;91.55;46.45;;;-1.80;92.40;;;;;;5071739;28;20392;-76
2023/01/29 04:25:14;;;;;;;91.30;49.03;;;-1.80;94.00;;;;;;5072508;28;20387;-74
2023/01/29 04:28:04;;;;;;;91.20;47.88;;;-1.70;90.80;;;;;;5072694;28;20387;-74
2023/01/29 04:30:39;;;;;;;100.50;49.03;;;-1.80;91.90;;;;;;5073005;28;20890;-76
2023/01/29 04:33:10;;;;;;;92.72;47.35;;;-1.80;93.10;;;;;;5072343;28;20398;-75
2023/01/29 04:36:06;;;;;;;93.43;49.40;;;-1.80;93.30;;;;;;5072092;28;20418;-75
2023/01/29 04:39:08;;;;;;;97.82;49.55;;;-1.90;94.10;;;;;;5071180;28;20394;-74
2023/01/29 04:41:52;;;;;;;85.97;48.08;;;-1.90;93.80;;;;;;5071125;28;20468;-74
2023/01/29 04:44:36;;;;;;;94.57;48.22;;;-1.90;94.90;;;;;;5053925;28;20383;-74
2023/01/29 04:47:09;;;;;;;91.05;46.65;;;-1.90;95.90;;;;;;5071391;28;20375;-74
2023/01/29 04:49:42;;;;;;;89.70;47.70;;;-1.90;96.30;;;;;;5070249;28;20411;-74
2023/01/29 04:52:26;;;;;;;90.77;47.93;;;-1.80;96.60;;;;;;5070745;28;20511;-76
2023/01/29 04:55:00;;;;;;;84.13;46.43;;;-1.80;93.80;;;;;;5071844;28;20588;-75
2023/01/29 04:57:30;;;;;;;90.03;48.27;;;-1.70;94.60;;;;;;5072008;28;20472;-74
2023/01/29 05:00:01;;;;;;;87.03;46.55;;;-1.80;93.10;;;;;;5071517;28;20951;-74
2023/01/29 05:02:28;;;;;;;93.80;48.22;;;-1.80;94.30;;;;;;5072355;28;20463;-75
2023/01/29 05:04:56;;;;;;;90.80;47.88;;;-1.80;94.60;;;;;;5072301;28;20383;-76
2023/01/29 05:07:24;;;;;;;94.75;49.03;;;-1.90;93.60;;;;;;5070683;28;20392;-74
2023/01/29 05:09:50;;;;;;;92.75;47.65;;;-1.90;93.80;;;;;;5070424;28;20408;-75
2023/01/29 05:12:17;;;;;;;87.38;46.47;;;-1.80;94.50;;;;;;5070157;28;20387;-75
2023/01/29 05:14:45;;;;;;;90.60;46.22;;;-1.80;93.70;;;;;;5072170;28;20387;-74
2023/01/29 05:17:17;;;;;;;90.10;47.70;;;-1.80;94.00;;;;;;5074623;28;20391;-76
2023/01/29 05:19:43;;;;;;;88.68;47.10;;;-1.70;92.40;;;;;;5073816;28;20482;-74
2023/01/29 05:22:12;;;;;;;86.75;46.72;;;-1.70;91.80;;;;;;5074368;28;20426;-74
2023/01/29 05:24:37;;;;;;;90.30;48.40;;;-1.60;91.70;;;;;;5073345;28;20775;-75
2023/01/29 05:29:48;;;;;;;89.13;47.28;;;-1.60;90.70;;;;;;5071613;28;20452;-75
2023/01/29 05:32:14;;;;;;;90.33;47.27;;;-1.60;89.90;;;;;;5071375;28;20387;-73
2023/01/29 05:34:40;;;;;;;81.95;45.45;;;-1.50;89.60;;;;;;5074581;28;20392;-75
2023/01/29 05:37:06;;;;;;;88.47;45.77;;;-1.40;87.70;;;;;;5074535;28;20728;-75
2023/01/29 05:39:31;;;;;;;85.07;44.65;;;-1.30;87.10;;;;;;5074677;28;20493;-75
2023/01/29 05:41:58;;;;;;;83.25;44.72;;;-1.30;84.90;;;;;;5073226;28;20760;-74
2023/01/29 05:44:23;;;;;;;88.10;44.75;;;-1.30;83.80;;;;;;5073759;28;20379;-73
2023/01/29 05:46:50;;;;;;;86.27;46.83;;;-1.30;82.50;;;;;;5073466;28;20967;-72
2023/01/29 05:49:16;;;;;;;85.72;46.97;;;-1.30;84.10;;;;;;5073428;28;20458;-74
2023/01/29 05:51:42;;;;;;;81.63;44.50;;;-1.20;83.70;;;;;;5073554;28;20398;-74
2023/01/29 05:54:13;;;;;;;88.07;45.70;;;-1.20;82.40;;;;;;5073199;28;20392;-75
2023/01/29 05:56:39;;;;;;;83.57;45.30;;;-1.10;83.80;;;;;;5074619;28;20383;-74
2023/01/29 05:59:06;;;;;;;85.43;46.15;;;-1.00;84.40;;;;;;5081004;28;20410;-73
2023/01/29 06:01:32;;;;;;;86.45;44.55;;;-1.00;84.30;;;;;;5090137;28;20387;-75
2023/01/29 06:03:57;;;;;;;79.35;44.22;;;-1.00;81.60;;;;;;5079176;28;20394;-75
2023/01/29 06:06:23;;;;;;;84.47;45.67;;;-1.00;80.90;;;;;;5073810;28;20403;-76
2023/01/29 06:08:48;;;;;;;79.53;44.40;;;-0.80;79.00;;;;;;5073211;28;20387;-75
2023/01/29 06:11:17;;;;;;;81.65;45.55;;;-0.90;77.40;;;;;;5072795;28;20414;-74
2023/01/29 06:13:43;;;;;;;81.20;45.10;;;-0.80;77.70;;;;;;5073542;28;20387;-75
2023/01/29 06:16:10;;;;;;;84.70;44.93;;;-0.70;76.90;;;;;;5072727;28;20414;-74
2023/01/29 06:18:37;;;;;;;78.80;42.47;;;-0.60;76.20;;;;;;5073070;28;20391;-75
2023/01/29 06:21:05;;;;;;;80.95;45.70;;;-0.70;74.60;;;;;;5072470;28;20399;-75
2023/01/29 06:23:31;;;;;;;80.43;45.53;;;-0.80;75.70;;;;;;5072712;28;20886;-74
2023/01/29 06:26:08;;;;;;;86.57;45.30;;;-0.80;73.50;;;;;;5072713;28;20467;-74
2023/01/29 06:28:33;;;;;;;83.85;44.53;;;-0.70;74.00;;;;;;5072975;28;20376;-75
2023/01/29 06:31:01;;;;;;;83.20;45.40;;;-0.80;73.80;;;;;;5072661;28;20479;-74
2023/01/29 06:33:27;;;;;;;82.47;43.57;;;-0.70;73.60;;;;;;5072991;28;20384;-75
2023/01/29 06:35:57;;;;;;;80.78;44.13;;;-0.70;74.50;;;;;;5072610;28;20737;-74
2023/01/29 06:38:23;;;;;;;80.68;43.95;;;-0.70;76.20;;;;;;5072492;28;20384;-74
2023/01/29 06:40:49;;;;;;;75.75;42.10;;;-0.60;76.70;;;;;;5072465;28;20388;-74
2023/01/29 06:43:14;;;;;;;85.82;44.20;;;-0.60;75.00;;;;;;5072438;28;20372;-74
2023/01/29 06:45:51;;;;;;;83.40;44.90;;;-0.60;75.00;;;;;;5072287;28;20769;-74
2023/01/29 06:48:17;;;;;;;80.25;43.22;;;-0.50;75.90;;;;;;5072587;28;20734;-74
2023/01/29 06:50:43;;;;;;;80.68;43.55;;;-0.50;72.60;;;;;;5071083;28;20487;-74
2023/01/29 06:53:09;;;;;;;83.55;43.33;;;-0.40;72.40;;;;;;5071480;28;20467;-74
2023/01/29 06:55:34;;;;;;;79.65;43.72;;;-0.50;70.50;;;;;;5072523;28;20469;-75
2023/01/29 06:58:08;;;;;;;82.23;43.90;;;-0.50;72.60;;;;;;5072947;28;20456;-75
2023/01/29 07:00:34;;;;;;;83.00;44.00;;;-0.50;73.60;;;;;;5073273;28;20391;-74
2023/01/29 07:03:00;;;;;;;82.82;43.78;;;-0.50;74.00;;;;;;5072900;28;20896;-74
2023/01/29 07:05:26;;;;;;;81.43;42.92;;;-0.40;73.40;;;;;;5074833;28;20390;-75
2023/01/29 07:07:51;;;;;;;80.17;43.20;;;-0.30;74.00;;;;;;5074147;28;20383;-74
2023/01/29 07:10:17;;;;;;;80.10;44.22;;;-0.30;72.70;;;;;;5073563;28;20743;-75
2023/01/29 07:12:43;;;;;;;83.45;45.03;;;-0.20;71.60;;;;;;5073716;28;20557;-75
2023/01/29 07:15:09;;;;;;;80.37;43.00;;;-0.30;69.80;;;;;;5073884;28;20448;-75
2023/01/29 07:17:34;;;;;;;80.85;44.03;;;-0.30;69.20;;;;;;5072498;28;20396;-73
2023/01/29 07:20:00;;;;;;;73.65;42.20;;;-0.40;70.40;;;;;;5073415;28;20810;-74
2023/01/29 07:22:25;;;;;;;83.47;44.70;;;-0.30;70.90;;;;;;5073482;28;20453;-73
2023/01/29 07:24:51;;;;;;;80.73;44.37;;;-0.30;70.30;;;;;;5074339;28;20886;-76
2023/01/29 07:27:16;;;;;;;85.70;43.37;;;-0.30;68.60;;;;;;5074384;28;20736;-75
2023/01/29 07:29:42;;;;;;;87.00;44.22;;;-0.20;68.50;;;;;;5078613;28;20409;-74
2023/01/29 07:32:07;;;;;;;78.55;42.85;;;-0.20;69.40;;;;;;5084727;28;20395;-72
2023/01/29 07:34:33;;;;;;;79.05;42.38;;;-0.10;68.70;;;;;;5077146;28;20384;-74
2023/01/29 07:36:58;;;;;;;74.80;41.60;;;-0.10;66.70;;;;;;5078225;28;20441;-75
2023/01/29 07:39:24;;;;;;;77.90;42.23;;;0.10;66.90;;;;;;5078169;28;20445;-74
2023/01/29 07:41:50;;;;;;;80.35;43.63;;;0.00;65.70;;;;;;5082020;28;20407;-74
2023/01/29 07:44:17;;;;;;;81.75;43.65;;;0.00;65.00;;;;;;5071411;28;20839;-73
2023/01/29 07:46:42;;;;;;;81.20;44.75;;;0.10;66.10;;;;;;5071984;28;20434;-74
2023/01/29 07:49:08;;;;;;;79.93;42.67;;;0.10;64.40;;;;;;5071245;28;20502;-74
2023/01/29 07:51:34;;;;;;;82.30;44.50;;;0.10;63.40;;;;;;5071780;28;20392;-73
2023/01/29 07:53:59;;;;;;;81.10;43.50;;;0.10;63.90;;;;;;5071157;28;20380;-75
2023/01/29 07:56:25;;;;;;;81.93;44.60;;;0.10;64.50;;;;;;5070781;28;20387;-74
2023/01/29 07:58:50;;;;;;;86.60;46.33;;;0.10;64.50;;;;;;5071415;28;20949;-74
2023/01/29 08:01:16;;;;;;;89.93;45.95;;;0.20;64.10;;;;;;5071635;28;20407;-74
2023/01/29 08:03:41;;;;;;;86.97;45.33;;;0.20;64.20;;;;;;5072677;28;20387;-78
2023/01/29 08:06:07;;;;;;;86.67;44.97;;;0.30;64.80;;;;;;5072985;28;20430;-75
2023/01/29 08:08:32;;;;;;;86.77;45.60;;;0.30;61.20;;;;;;5065054;28;20405;-76
2023/01/29 08:11:01;;;;;;;85.10;43.50;;;0.30;61.70;;;;;;5072065;28;20398;-76
2023/01/29 08:13:26;;;;;;;85.20;43.80;;;0.30;61.90;;;;;;5062888;28;20420;-76
2023/01/29 08:15:52;;;;;;;88.22;44.72;;;0.30;62.20;;;;;;5051401;28;20381;-73
2023/01/29 08:18:18;;;;;;;88.43;46.93;;;0.40;60.80;;;;;;5051808;28;20374;-75
2023/01/29 08:20:43;;;;;;;82.37;44.40;;;0.30;60.80;;;;;;5052197;28;20404;-74
2023/01/29 08:23:14;;;;;;;86.13;45.17;;;0.40;59.70;;;;;;5052344;28;20508;-75
2023/01/29 08:25:40;;;;;;;83.55;45.47;;;0.40;60.40;;;;;;5062064;28;20808;-75
2023/01/29 08:28:06;;;;;;;86.30;45.80;;;0.40;61.40;;;;;;5073365;28;20415;-74
2023/01/29 08:30:33;;;;;;;79.78;44.80;;;0.50;62.00;;;;;;5081462;28;20384;-74
2023/01/29 08:32:59;;;;;;;84.60;45.63;;;0.60;60.60;;;;;;5083548;28;20459;-75
2023/01/29 08:35:25;;;;;;;84.70;44.83;;;0.50;61.40;;;;;;5073083;28;20415;-77
2023/01/29 08:37:58;;;;;;;88.60;47.85;;;0.50;61.30;;;;;;5074481;28;20384;-74
2023/01/29 08:40:25;;;;;;;88.70;46.13;;;0.60;62.40;;;;;;5075725;28;20467;-75
2023/01/29 08:42:51;;;;;;;82.85;45.20;;;0.60;63.80;;;;;;5076874;28;20387;-75
2023/01/29 08:45:16;;;;;;;88.25;45.25;;;0.60;64.20;;;;;;5078366;28;20384;-76
2023/01/29 08:47:49;;;;;;;87.70;47.17;;;0.60;63.10;;;;;;5077607;28;20883;-72
2023/01/29 08:50:16;;;;;;;89.25;46.35;;;0.70;63.00;;;;;;5070547;28;20384;-73
2023/01/29 08:52:42;;;;;;;84.23;44.93;;;0.70;62.60;;;;;;5070697;28;20402;-73
2023/01/29 08:55:08;;;;;;;82.73;44.20;;;0.80;62.70;;;;;;5071203;28;20411;-73
2023/01/29 08:57:33;;;;;;;87.38;45.05;;;0.80;62.50;;;;;;5071373;28;20392;-74
2023/01/29 08:59:59;;;;;;;85.80;44.10;;;0.80;61.40;;;;;;5071048;28;20408;-73
2023/01/29 09:02:25;;;;;;;88.47;46.17;;;0.90;60.80;;;;;;5071117;28;20466;-74
2023/01/29 09:04:50;;;;;;;80.33;44.03;;;1.10;60.70;;;;;;5071071;28;20390;-74
2023/01/29 09:07:16;;;;;;;79.07;43.40;;;1.20;57.80;;;;;;5071742;28;20743;-74
2023/01/29 09:09:41;;;;;;;85.20;44.83;;;1.30;56.90;;;;;;5074879;28;20387;-74
2023/01/29 09:12:08;;;;;;;85.07;43.92;;;1.20;57.50;;;;;;5067672;28;20460;-73
2023/01/29 09:14:34;;;;;;;81.90;43.08;;;1.40;57.80;;;;;;5055282;28;20389;-74
2023/01/29 09:16:59;;;;;;;87.78;45.30;;;1.40;56.50;;;;;;5052657;28;20399;-72
2023/01/29 09:19:25;;;;;;;85.65;43.28;;;1.40;56.60;;;;;;5072744;28;20775;-72
2023/01/29 09:21:50;;;;;;;84.63;45.30;;;1.50;57.70;;;;;;5072141;28;20520;-74
2023/01/29 09:24:16;;;;;;;88.07;44.30;;;1.50;57.50;;;;;;5073086;28;20889;-72
2023/01/29 09:26:42;;;;;;;84.87;44.20;;;1.70;58.30;;;;;;5073059;28;20380;-73
2023/01/29 09:29:09;;;;;;;81.30;42.10;;;1.80;54.40;;;;;;5073140;28;20402;-74
2023/01/29 09:31:35;;;;;;;82.50;43.60;;;1.70;53.10;;;;;;5069364;28;20895;-72
2023/01/29 09:34:00;;;;;;;82.97;42.25;;;1.80;53.60;;;;;;5072389;28;20386;-73
2023/01/29 09:36:26;;;;;;;80.50;42.97;;;1.90;52.40;;;;;;5072436;28;20388;-73
2023/01/29 09:38:51;;;;;;;83.78;42.53;;;1.90;51.70;;;;;;5072331;28;20431;-73
2023/01/29 09:41:42;;;;;;;78.87;42.60;;;1.90;52.00;;;;;;5072780;28;20387;-74
2023/01/29 09:44:20;;;;;;;82.22;42.88;;;2.00;50.90;;;;;;5072162;28;20411;-76
2023/01/29 09:46:47;;;;;;;85.53;44.03;;;2.00;50.00;;;;;;5071522;28;20541;-73
2023/01/29 09:49:26;;;;;;;84.28;43.28;;;2.10;51.50;;;;;;5069956;28;20396;-75
2023/01/29 09:51:57;;;;;;;82.95;43.50;;;2.10;50.70;;;;;;5071529;28;20406;-74
2023/01/29 09:54:31;;;;;;;78.67;42.47;;;2.20;52.40;;;;;;5071549;28;20403;-73
2023/01/29 09:56:57;;;;;;;84.82;44.42;;;2.30;52.20;;;;;;5072208;28;20379;-72
2023/01/29 09:59:25;;;;;;;79.68;43.22;;;2.30;53.10;;;;;;5071848;28;20409;-73
2023/01/29 10:02:09;;;;;;;81.00;43.33;;;2.30;52.50;;;;;;5070864;28;20739;-73
2023/01/29 10:04:56;;;;;;;77.97;42.60;;;2.40;54.00;;;;;;5070509;28;20396;-73
2023/01/29 10:08:03;;;;;;;79.22;42.78;;;2.50;51.80;;;;;;5070227;28;20411;-71
2023/01/29 10:10:42;;;;;;;82.13;43.50;;;2.60;49.70;;;;;;5040006;28;20907;-75
2023/01/29 10:13:39;;;;;;;81.50;43.10;;;2.60;47.80;;;;;;5071087;28;20407;-74
2023/01/29 10:16:21;;;;;;;82.15;44.10;;;2.70;47.00;;;;;;5073647;28;20733;-74
2023/01/29 10:19:03;;;;;;;81.75;43.60;;;2.70;46.30;;;;;;5071158;28;20391;-76
2023/01/29 10:22:08;;;;;;;81.53;43.10;;;2.70;46.90;;;;;;5072456;28;20400;-74
2023/01/29 10:24:39;;;;;;;84.03;44.05;;;2.90;47.60;;;;;;5051333;28;20450;-74
2023/01/29 10:27:16;;;;;;;80.47;43.83;;;3.00;45.90;;;;;;5051367;28;20454;-73
2023/01/29 10:29:44;;;;;;;82.13;43.70;;;3.00;44.40;;;;;;5063846;28;20399;-74
2023/01/29 10:32:21;;;;;;;77.38;42.55;;;3.00;44.40;;;;;;5071883;28;20411;-71
2023/01/29 10:34:57;;;;;;;78.45;42.80;;;3.10;45.60;;;;;;5070329;28;20560;-73
2023/01/29 10:37:33;;;;;;;79.03;42.72;;;3.10;44.50;;;;;;5070645;28;20411;-72
2023/01/29 10:39:59;;;;;;;78.82;42.53;;;3.20;43.30;;;;;;5069678;28;20926;-72
2023/01/29 10:42:42;;;;;;;78.20;42.53;;;3.30;43.00;;;;;;5060314;28;20405;-77
2023/01/29 10:45:31;;;;;;;78.15;44.15;;;3.40;42.10;;;;;;5063210;28;20384;-76
2023/01/29 10:48:21;;;;;;;83.97;44.38;;;3.40;41.60;;;;;;5034449;28;20428;-78
2023/01/29 10:50:49;;;;;;;86.68;42.58;;;3.40;41.90;;;;;;5054270;28;20381;-75
2023/01/29 10:53:36;;;;;;;77.88;42.85;;;3.50;42.80;;;;;;5056996;28;20397;-77
2023/01/29 10:56:15;;;;;;;80.85;43.50;;;3.60;41.90;;;;;;5055281;28;20502;-76
2023/01/29 10:58:47;;;;;;;79.72;43.00;;;3.70;41.50;;;;;;5073422;28;20466;-75
2023/01/29 11:01:13;;;;;;;77.18;43.00;;;3.70;42.20;;;;;;5066732;28;20731;-75
2023/01/29 11:03:39;;;;;;;85.03;43.75;;;3.70;41.80;;;;;;5074425;28;20389;-77
2023/01/29 11:06:29;;;;;;;83.00;42.65;;;3.80;40.20;;;;;;5061781;28;20393;-75
2023/01/29 11:09:15;;;;;;;79.68;42.38;;;3.80;39.80;;;;;;5060319;28;20383;-76
2023/01/29 11:11:58;;;;;;;77.00;39.92;;;3.70;39.00;;;;;;5071263;28;20392;-76
2023/01/29 11:14:28;;;;;;;80.70;41.30;;;3.70;38.00;;;;;;5061841;28;20397;-75
2023/01/29 11:16:54;;;;;;;86.75;44.00;;;3.60;38.90;;;;;;5053904;28;20377;-75
2023/01/29 11:19:42;;;;;;;88.90;42.65;;;3.70;42.80;;;;;;5055163;28;20473;-77
2023/01/29 11:22:18;;;;;;;86.70;42.35;;;3.70;40.10;;;;;;5053949;28;20404;-71
2023/01/29 11:24:45;;;;;;;81.85;40.13;;;3.60;40.40;;;;;;5053733;28;20451;-72
2023/01/29 11:27:24;;;;;;;83.07;43.50;;;3.60;40.20;;;;;;5067460;28;20406;-71
2023/01/29 11:29:52;;;;;;;77.40;40.65;;;3.50;42.20;;;;;;5071723;28;20811;-73
2023/01/29 11:32:17;;;;;;;78.30;40.07;;;3.50;40.00;;;;;;5072585;28;20383;-74
2023/01/29 11:35:01;;;;;;;85.23;42.57;;;3.40;40.00;;;;;;5072603;28;20440;-71
2023/01/29 11:37:38;;;;;;;89.47;40.55;;;3.50;40.60;;;;;;5072529;28;20376;-73
2023/01/29 11:40:31;;;;;;;82.07;39.72;;;3.50;40.70;;;;;;5071082;28;20455;-70
2023/01/29 11:43:11;;;;;;;78.78;40.97;;;3.50;39.00;;;;;;5071935;28;20387;-71
2023/01/29 11:45:39;;;;;;;78.78;41.08;;;3.50;40.00;;;;;;5072180;28;20416;-71
2023/01/29 11:48:11;;;;;;;78.70;40.80;;;3.60;39.90;;;;;;5071889;28;20991;-73
2023/01/29 11:50:36;;;;;;;80.20;41.78;;;3.60;39.20;;;;;;5072133;28;20844;-72
2023/01/29 11:53:04;;;;;;;76.27;38.67;;;3.70;39.50;;;;;;5071458;28;20402;-72
2023/01/29 11:55:34;;;;;;;76.75;40.40;;;3.70;38.20;;;;;;5071675;28;20460;-74
2023/01/29 11:58:25;;;;;;;79.43;41.17;;;3.70;39.40;;;;;;5071724;28;20383;-72
2023/01/29 12:00:54;;;;;;;81.78;40.95;;;3.50;38.60;;;;;;5071425;28;20845;-71
2023/01/29 12:03:28;;;;;;;81.85;40.95;;;3.40;39.50;;;;;;5072171;28;20391;-72
2023/01/29 12:06:19;;;;;;;82.00;41.28;;;3.50;39.70;;;;;;5071774;28;20372;-75
2023/01/29 12:08:54;;;;;;;79.45;40.08;;;3.50;40.40;;;;;;5060884;28;20398;-73
2023/01/29 12:11:30;;;;;;;83.30;40.80;;;3.50;40.30;;;;;;5071413;28;20888;-73
2023/01/29 12:13:59;;;;;;;80.78;40.67;;;3.50;40.20;;;;;;5071178;28;20380;-72
2023/01/29 12:16:31;;;;;;;82.30;43.07;;;3.60;38.80;;;;;;5071155;28;20510;-71
2023/01/29 12:19:25;;;;;;;81.07;40.47;;;3.70;38.80;;;;;;5071294;28;20439;-71
2023/01/29 12:22:13;;;;;;;76.50;40.45;;;3.60;37.50;;;;;;5071236;28;20395;-72
2023/01/29 12:24:56;;;;;;;76.82;40.00;;;3.60;39.30;;;;;;5070658;28;20411;-70
2023/01/29 12:28:02;;;;;;;82.20;41.28;;;3.50;38.80;;;;;;5071595;28;20414;-72
2023/01/29 12:30:41;;;;;;;78.15;40.60;;;3.50;39.80;;;;;;4989468;28;20521;-72
2023/01/29 12:33:13;;;;;;;82.80;40.40;;;3.60;39.70;;;;;;5061307;28;20445;-73
2023/01/29 12:35:53;;;;;;;85.78;41.03;;;3.70;38.30;;;;;;5071460;28;20375;-73
2023/01/29 12:38:21;;;;;;;79.10;41.15;;;3.70;38.70;;;;;;5070404;28;20384;-73
2023/01/29 12:40:56;;;;;;;77.65;40.28;;;3.70;39.30;;;;;;5071707;28;20483;-73
2023/01/29 12:43:30;;;;;;;84.40;41.67;;;3.80;40.30;;;;;;5077699;28;20936;-73
2023/01/29 12:45:57;;;;;;;81.13;40.87;;;3.80;39.70;;;;;;5077826;28;20437;-75
2023/01/29 12:48:35;;;;;;;85.45;42.67;;;3.80;39.80;;;;;;5077928;28;20384;-73
2023/01/29 12:51:08;;;;;;;81.80;41.43;;;3.90;39.20;;;;;;5077251;28;20383;-72
2023/01/29 12:53:55;;;;;;;78.75;40.08;;;3.90;38.70;;;;;;5079597;28;20438;-71
2023/01/29 12:56:30;;;;;;;85.33;44.10;;;3.80;38.00;;;;;;5077942;28;20462;-71
2023/01/29 12:58:59;;;;;;;90.65;42.40;;;3.90;39.40;;;;;;5077576;28;20399;-72
2023/01/29 13:01:33;;;;;;;85.68;42.38;;;4.10;40.20;;;;;;5077181;28;20689;-74
2023/01/29 13:04:29;;;;;;;77.95;40.53;;;4.10;39.40;;;;;;5078058;28;20732;-72
2023/01/29 13:07:05;;;;;;;84.00;42.85;;;4.10;37.70;;;;;;5077675;28;20384;-71
2023/01/29 13:09:33;;;;;;;83.93;43.63;;;4.20;39.10;;;;;;5077615;28;20458;-74
2023/01/29 13:12:04;;;;;;;81.13;40.97;;;4.20;38.20;;;;;;5077529;28;20714;-71
2023/01/29 13:14:41;;;;;;;86.50;43.13;;;4.30;37.80;;;;;;5077316;28;20797;-70
2023/01/29 13:17:35;;;;;;;87.10;43.05;;;4.30;37.20;;;;;;5077438;28;20847;-73
2023/01/29 13:20:11;;;;;;;81.68;43.30;;;4.30;37.40;;;;;;5067906;28;20411;-71
2023/01/29 13:22:39;;;;;;;82.15;42.97;;;4.30;37.40;;;;;;5075754;28;20379;-73
2023/01/29 13:25:10;;;;;;;81.63;43.30;;;4.30;36.80;;;;;;5077044;28;20470;-74